createdAt,value
2022-12-09T00:00:22.573Z,94420.75
2022-12-09T00:02:50.530Z,94421.09
2022-12-09T00:05:18.595Z,94413.59
2022-12-09T00:07:46.992Z,94420.97
2022-12-09T00:10:16.987Z,94421.22
2022-12-09T00:12:46.317Z,94419.00
2022-12-09T00:15:14.058Z,94405.53
2022-12-09T00:17:41.825Z,94408.78
2022-12-09T00:20:10.874Z,94410.28
2022-12-09T00:22:38.900Z,94415.00
2022-12-09T00:25:07.450Z,94399.41
2022-12-09T00:27:35.232Z,94405.31
2022-12-09T00:30:05.758Z,94398.16
2022-12-09T00:32:33.989Z,94394.78
2022-12-09T00:35:01.957Z,94385.56
2022-12-09T00:37:29.735Z,94386.25
2022-12-09T00:39:57.395Z,94384.63
2022-12-09T00:42:25.248Z,94383.16
2022-12-09T00:44:52.951Z,94376.69
2022-12-09T00:47:22.190Z,94379.22
2022-12-09T00:49:50.261Z,94387.41
2022-12-09T00:52:17.951Z,94374.16
2022-12-09T00:54:45.731Z,94374.03
2022-12-09T00:57:13.620Z,94357.28
2022-12-09T00:59:41.357Z,94345.66
2022-12-09T01:02:09.195Z,94350.59
2022-12-09T01:04:38.443Z,94357.44
2022-12-09T01:07:06.289Z,94341.72
2022-12-09T01:09:34.909Z,94339.44
2022-12-09T01:12:03.884Z,94346.34
2022-12-09T01:14:31.598Z,94348.53
2022-12-09T01:16:59.511Z,94343.47
2022-12-09T01:19:27.435Z,94344.97
2022-12-09T01:21:56.572Z,94344.97
2022-12-09T01:24:24.479Z,94352.91
2022-12-09T01:26:52.432Z,94357.44
2022-12-09T01:29:23.300Z,94343.22
2022-12-09T01:31:51.091Z,94323.50
2022-12-09T01:34:18.807Z,94337.56
2022-12-09T01:36:47.845Z,94330.88
2022-12-09T01:39:17.817Z,94341.03
2022-12-09T01:41:45.864Z,94349.56
2022-12-09T01:44:20.778Z,94350.69
2022-12-09T01:46:49.396Z,94348.75
2022-12-09T01:49:23.373Z,94333.66
2022-12-09T01:51:59.240Z,94341.13
2022-12-09T01:54:28.646Z,94332.13
2022-12-09T01:56:57.387Z,94336.19
2022-12-09T01:59:26.584Z,94325.56
2022-12-09T02:01:59.241Z,94320.50
2022-12-09T02:04:29.895Z,94321.88
2022-12-09T02:06:58.668Z,94315.19
2022-12-09T02:09:26.556Z,94320.72
2022-12-09T02:12:11.363Z,94306.06
2022-12-09T02:14:44.089Z,94307.22
2022-12-09T02:17:25.185Z,94294.34
2022-12-09T02:20:05.335Z,94307.69
2022-12-09T02:22:47.025Z,94300.66
2022-12-09T02:25:27.755Z,94275.53
2022-12-09T02:28:17.929Z,94289.69
2022-12-09T02:30:56.119Z,94272.50
2022-12-09T02:33:39.184Z,94272.63
2022-12-09T02:36:14.206Z,94265.03
2022-12-09T02:38:44.469Z,94283.59
2022-12-09T02:41:17.766Z,94288.22
2022-12-09T02:43:50.296Z,94283.22
2022-12-09T02:46:21.856Z,94271.94
2022-12-09T02:48:56.754Z,94269.38
2022-12-09T02:51:30.912Z,94270.53
2022-12-09T02:54:04.022Z,94265.31
2022-12-09T02:56:33.099Z,94263.25
2022-12-09T02:59:00.933Z,94250.19
2022-12-09T03:01:37.827Z,94247.09
2022-12-09T03:04:21.962Z,94243.41
2022-12-09T03:06:54.326Z,94236.94
2022-12-09T03:09:26.600Z,94230.16
2022-12-09T03:12:00.715Z,94230.50
2022-12-09T03:14:34.129Z,94229.28
2022-12-09T03:17:07.123Z,94230.78
2022-12-09T03:19:40.370Z,94230.53
2022-12-09T03:22:12.903Z,94226.03
2022-12-09T03:24:52.144Z,94228.81
2022-12-09T03:27:24.162Z,94221.53
2022-12-09T03:29:53.208Z,94220.75
2022-12-09T03:32:25.470Z,94232.63
2022-12-09T03:34:58.028Z,94224.19
2022-12-09T03:37:27.876Z,94230.78
2022-12-09T03:39:57.942Z,94227.66
2022-12-09T03:42:34.971Z,94224.66
2022-12-09T03:45:09.363Z,94223.97
2022-12-09T03:47:38.151Z,94228.16
2022-12-09T03:50:07.942Z,94226.84
2022-12-09T03:52:43.961Z,94221.19
2022-12-09T03:55:19.392Z,94210.34
2022-12-09T03:57:49.649Z,94194.56
2022-12-09T04:00:18.382Z,94201.13
2022-12-09T04:02:47.024Z,94194.13
2022-12-09T04:05:15.022Z,94191.25
2022-12-09T04:07:44.974Z,94186.84
2022-12-09T04:10:12.991Z,94191.94
2022-12-09T04:12:42.234Z,94194.34
2022-12-09T04:15:10.971Z,94198.72
2022-12-09T04:17:38.838Z,94198.97
2022-12-09T04:20:08.165Z,94194.69
2022-12-09T04:22:36.343Z,94197.66
2022-12-09T04:25:05.921Z,94199.16
2022-12-09T04:27:33.819Z,94195.00
2022-12-09T04:30:02.306Z,94192.25
2022-12-09T04:32:30.521Z,94177.59
2022-12-09T04:35:01.598Z,94176.78
2022-12-09T04:37:29.531Z,94166.75
2022-12-09T04:39:57.405Z,94145.31
2022-12-09T04:42:27.148Z,94154.84
2022-12-09T04:44:55.042Z,94153.31
2022-12-09T04:47:23.035Z,94146.88
2022-12-09T04:49:50.907Z,94151.88
2022-12-09T04:52:19.196Z,94152.09
2022-12-09T04:54:48.833Z,94146.00
2022-12-09T04:57:16.586Z,94154.75
2022-12-09T04:59:45.906Z,94148.88
2022-12-09T05:02:13.719Z,94131.34
2022-12-09T05:04:43.001Z,94132.97
2022-12-09T05:07:12.549Z,94125.88
2022-12-09T05:09:41.042Z,94123.22
2022-12-09T05:12:09.419Z,94121.97
2022-12-09T05:14:37.397Z,94127.03
2022-12-09T05:17:09.507Z,94134.75
2022-12-09T05:19:39.459Z,94140.59
2022-12-09T05:22:07.467Z,94144.94
2022-12-09T05:24:35.864Z,94149.34
2022-12-09T05:27:03.854Z,94144.28
2022-12-09T05:29:34.614Z,94132.84
2022-12-09T05:32:02.419Z,94135.50
2022-12-09T05:34:32.272Z,94137.34
2022-12-09T05:37:00.727Z,94130.44
2022-12-09T05:39:28.699Z,94128.59
2022-12-09T05:41:56.529Z,94128.69
2022-12-09T05:44:24.433Z,94132.63
2022-12-09T05:46:52.276Z,94125.81
2022-12-09T05:49:20.502Z,94125.00
2022-12-09T05:51:52.678Z,94123.16
2022-12-09T05:54:20.882Z,94125.91
2022-12-09T05:56:49.150Z,94116.00
2022-12-09T05:59:17.052Z,94113.47
2022-12-09T06:01:45.149Z,94109.31
2022-12-09T06:04:16.217Z,94101.09
2022-12-09T06:06:44.678Z,94110.53
2022-12-09T06:09:14.690Z,94103.88
2022-12-09T06:11:42.561Z,94104.66
2022-12-09T06:14:11.596Z,94102.88
2022-12-09T06:16:40.604Z,94107.72
2022-12-09T06:19:08.803Z,94097.34
2022-12-09T06:21:36.989Z,94092.69
2022-12-09T06:24:06.808Z,94089.09
2022-12-09T06:26:36.260Z,94090.88
2022-12-09T06:29:04.303Z,94076.63
2022-12-09T06:31:32.539Z,94068.91
2022-12-09T06:34:01.360Z,94069.19
2022-12-09T06:36:31.506Z,94066.88
2022-12-09T06:39:07.577Z,94063.16
2022-12-09T06:41:39.323Z,94071.38
2022-12-09T06:44:07.443Z,94072.66
2022-12-09T06:46:35.384Z,94059.63
2022-12-09T06:49:03.853Z,94053.81
2022-12-09T06:51:34.499Z,94052.94
2022-12-09T06:54:02.438Z,94057.81
2022-12-09T06:56:35.296Z,94064.59
2022-12-09T06:59:08.716Z,94064.91
2022-12-09T07:01:37.839Z,94062.81
2022-12-09T07:04:07.418Z,94063.41
2022-12-09T07:06:38.321Z,94060.28
2022-12-09T07:09:08.915Z,94064.91
2022-12-09T07:11:37.573Z,94075.88
2022-12-09T07:14:07.478Z,94085.78
2022-12-09T07:16:36.217Z,94076.44
2022-12-09T07:19:05.305Z,94075.53
2022-12-09T07:21:33.845Z,94075.88
2022-12-09T07:24:02.950Z,94072.66
2022-12-09T07:26:32.581Z,94073.94
2022-12-09T07:29:03.085Z,94063.38
2022-12-09T07:31:32.950Z,94055.72
2022-12-09T07:34:02.182Z,94045.97
2022-12-09T07:36:31.674Z,94032.69
2022-12-09T07:39:01.570Z,94043.16
2022-12-09T07:41:30.368Z,94035.75
2022-12-09T07:43:58.555Z,94042.41
2022-12-09T07:46:27.635Z,94038.50
2022-12-09T07:48:58.632Z,94043.72
2022-12-09T07:51:26.963Z,94042.69
2022-12-09T07:53:57.957Z,94039.63
2022-12-09T07:56:28.397Z,94055.16
2022-12-09T07:58:57.421Z,94058.94
2022-12-09T08:01:27.820Z,94064.28
2022-12-09T08:03:58.679Z,94056.03
2022-12-09T08:06:28.711Z,94053.13
2022-12-09T08:09:01.870Z,94054.16
2022-12-09T08:11:31.887Z,94052.56
2022-12-09T08:14:07.172Z,94047.56
2022-12-09T08:16:39.139Z,94039.13
2022-12-09T08:19:09.120Z,94034.63
2022-12-09T08:21:37.692Z,94021.88
2022-12-09T08:24:07.788Z,94034.13
2022-12-09T08:26:37.594Z,94035.81
2022-12-09T08:29:09.834Z,94033.44
2022-12-09T08:31:41.730Z,94022.53
2022-12-09T08:34:12.195Z,94019.69
2022-12-09T08:36:40.804Z,94021.59
2022-12-09T08:39:09.229Z,94022.41
2022-12-09T08:41:39.452Z,94021.09
2022-12-09T08:44:09.694Z,94014.97
2022-12-09T08:46:39.930Z,94014.50
2022-12-09T08:49:11.346Z,94003.34
2022-12-09T08:51:41.401Z,94002.56
2022-12-09T08:54:09.288Z,94004.47
2022-12-09T08:56:37.526Z,93996.78
2022-12-09T08:59:06.088Z,93981.28
2022-12-09T09:01:35.807Z,93999.19
2022-12-09T09:04:06.614Z,94006.69
2022-12-09T09:06:35.321Z,94005.88
2022-12-09T09:09:05.821Z,94009.38
2022-12-09T09:11:34.541Z,94021.41
2022-12-09T09:14:05.044Z,94022.47
2022-12-09T09:16:33.207Z,94018.19
2022-12-09T09:19:05.855Z,94011.78
2022-12-09T09:21:35.618Z,94008.84
2022-12-09T09:24:09.827Z,94010.25
2022-12-09T09:26:41.567Z,94015.16
2022-12-09T09:29:12.565Z,94021.00
2022-12-09T09:31:41.002Z,94014.63
2022-12-09T09:34:09.479Z,94018.09
2022-12-09T09:36:37.879Z,94012.22
2022-12-09T09:39:07.668Z,94011.22
2022-12-09T09:41:45.487Z,94005.88
2022-12-09T09:44:20.588Z,93990.09
2022-12-09T09:46:52.733Z,93980.50
2022-12-09T09:49:29.863Z,93989.06
2022-12-09T09:51:58.593Z,93987.25
2022-12-09T09:54:28.158Z,93979.22
2022-12-09T09:57:02.272Z,93962.13
2022-12-09T09:59:45.377Z,93967.22
2022-12-09T10:02:19.986Z,93958.13
2022-12-09T10:05:00.020Z,93952.28
2022-12-09T10:07:36.657Z,93953.31
2022-12-09T10:10:17.925Z,93948.25
2022-12-09T10:13:06.101Z,93951.44
2022-12-09T10:15:43.065Z,93933.28
2022-12-09T10:18:19.097Z,93941.84
2022-12-09T10:20:47.804Z,93950.38
2022-12-09T10:23:17.466Z,93943.97
2022-12-09T10:25:49.991Z,93940.50
2022-12-09T10:28:22.296Z,93949.59
2022-12-09T10:30:51.791Z,93945.81
2022-12-09T10:33:28.689Z,93953.31
2022-12-09T10:35:57.595Z,93938.63
2022-12-09T10:38:27.503Z,93941.56
2022-12-09T10:41:04.441Z,93943.41
2022-12-09T10:43:38.693Z,93950.88
2022-12-09T10:46:19.481Z,93939.44
2022-12-09T10:48:57.592Z,93934.59
2022-12-09T10:51:28.976Z,93920.22
2022-12-09T10:54:00.865Z,93921.00
2022-12-09T10:56:32.693Z,93912.44
2022-12-09T10:59:12.719Z,93910.59
2022-12-09T11:01:52.200Z,93898.84
2022-12-09T11:04:25.217Z,93903.91
2022-12-09T11:06:59.748Z,93895.09
2022-12-09T11:09:32.637Z,93891.66
2022-12-09T11:12:05.581Z,93895.63
2022-12-09T11:14:36.709Z,93887.09
2022-12-09T11:17:16.719Z,93885.25
2022-12-09T11:19:47.207Z,93878.81
2022-12-09T11:22:34.511Z,93881.19
2022-12-09T11:25:23.726Z,93875.34
2022-12-09T11:27:57.100Z,93859.56
2022-12-09T11:30:27.036Z,93858.22
2022-12-09T11:33:07.217Z,93857.69
2022-12-09T11:35:51.928Z,93852.06
2022-12-09T11:38:29.923Z,93842.97
2022-12-09T11:41:07.785Z,93839.75
2022-12-09T11:43:41.215Z,93833.88
2022-12-09T11:46:19.847Z,93844.25
2022-12-09T11:48:54.131Z,93842.38
2022-12-09T11:51:25.297Z,93844.56
2022-12-09T11:54:01.749Z,93844.28
2022-12-09T11:56:31.752Z,93832.00
2022-12-09T11:59:04.255Z,93832.28
2022-12-09T12:01:40.499Z,93834.09
2022-12-09T12:04:11.971Z,93831.16
2022-12-09T12:06:45.395Z,93830.31
2022-12-09T12:09:17.969Z,93827.13
2022-12-09T12:11:56.518Z,93821.25
2022-12-09T12:14:29.273Z,93829.53
2022-12-09T12:17:05.742Z,93826.59
2022-12-09T12:19:36.330Z,93825.25
2022-12-09T12:22:26.173Z,93833.81
2022-12-09T12:25:23.865Z,93829.81
2022-12-09T12:28:10.768Z,93832.50
2022-12-09T12:30:48.372Z,93825.59
2022-12-09T12:36:39.313Z,93813.81
2022-12-09T12:39:22.115Z,93816.78
2022-12-09T12:41:56.963Z,93816.22
2022-12-09T12:44:54.667Z,93807.69
2022-12-09T12:47:28.434Z,93818.63
2022-12-09T12:50:11.541Z,93811.69
2022-12-09T12:52:56.020Z,93813.28
2022-12-09T12:55:41.887Z,93815.44
2022-12-09T12:58:18.053Z,93816.50
2022-12-09T13:01:00.481Z,93814.13
2022-12-09T13:03:39.868Z,93814.66
2022-12-09T13:06:12.309Z,93814.13
2022-12-09T13:08:45.316Z,93807.69
2022-12-09T13:11:19.793Z,93802.06
2022-12-09T13:13:52.442Z,93805.00
2022-12-09T13:16:27.480Z,93803.09
2022-12-09T13:19:09.170Z,93799.13
2022-12-09T13:21:37.411Z,93797.53
2022-12-09T13:24:19.725Z,93800.72
2022-12-09T13:26:53.781Z,93800.25
2022-12-09T13:29:37.160Z,93804.22
2022-12-09T13:32:20.124Z,93802.91
2022-12-09T13:34:54.515Z,93802.63
2022-12-09T13:37:59.670Z,93804.50
2022-12-09T13:40:35.299Z,93808.25
2022-12-09T13:43:12.793Z,93810.41
2022-12-09T13:45:50.928Z,93808.00
2022-12-09T13:48:52.806Z,93812.25
2022-12-09T13:51:23.819Z,93814.13
2022-12-09T13:54:01.023Z,93809.31
2022-12-09T13:56:31.986Z,93818.69
2022-12-09T13:59:33.453Z,93819.22
2022-12-09T14:02:10.341Z,93818.41
2022-12-09T14:04:46.749Z,93818.41
2022-12-09T14:07:30.276Z,93815.75
2022-12-09T14:09:59.228Z,93816.81
2022-12-09T14:13:20.100Z,93826.16
2022-12-09T14:15:48.924Z,93829.94
2022-12-09T14:18:32.849Z,93834.47
2022-12-09T14:21:23.060Z,93835.28
2022-12-09T14:24:28.221Z,93842.47
2022-12-09T14:27:14.816Z,93848.91
2022-12-09T14:29:51.085Z,93853.97
2022-12-09T14:32:24.947Z,93847.81
2022-12-09T14:35:07.137Z,93859.03
2022-12-09T14:37:58.883Z,93858.25
2022-12-09T14:40:40.113Z,93858.25
2022-12-09T14:43:22.969Z,93855.84
2022-12-09T14:45:55.645Z,93850.50
2022-12-09T14:48:26.027Z,93852.38
2022-12-09T14:51:16.734Z,93859.84
2022-12-09T14:53:47.765Z,93856.13
2022-12-09T14:56:18.654Z,93859.88
2022-12-09T14:58:55.518Z,93857.19
2022-12-09T15:01:23.246Z,93863.31
2022-12-09T15:03:56.909Z,93871.88
2022-12-09T15:06:26.961Z,93864.66
2022-12-09T15:08:57.841Z,93859.59
2022-12-09T15:11:29.237Z,93858.00
2022-12-09T15:14:23.760Z,93857.72
2022-12-09T15:16:54.247Z,93870.53
2022-12-09T15:19:58.708Z,93876.13
2022-12-09T15:22:21.632Z,93887.34
2022-12-09T15:24:51.136Z,93887.06
2022-12-09T15:27:21.191Z,93885.47
2022-12-09T15:29:51.253Z,93886.00
2022-12-09T15:32:25.178Z,93881.47
2022-12-09T15:34:54.264Z,93886.28
2022-12-09T15:37:29.398Z,93881.97
2022-12-09T15:40:01.784Z,93893.47
2022-12-09T15:42:33.073Z,93885.72
2022-12-09T15:45:08.018Z,93886.28
2022-12-09T15:47:38.939Z,93887.34
2022-12-09T15:50:15.185Z,93892.13
2022-12-09T15:52:48.766Z,93891.59
2022-12-09T15:55:19.566Z,93884.66
2022-12-09T15:57:50.240Z,93881.19
2022-12-09T16:00:20.264Z,93883.31
2022-12-09T16:02:50.656Z,93888.13
2022-12-09T16:08:01.495Z,93889.19
2022-12-09T16:10:30.785Z,93886.25
2022-12-09T16:13:10.420Z,93893.72
2022-12-09T16:15:50.040Z,93904.94
2022-12-09T16:18:21.054Z,93907.34
2022-12-09T16:21:17.373Z,93899.88
2022-12-09T16:23:45.630Z,93896.91
2022-12-09T16:26:19.924Z,93894.78
2022-12-09T16:28:55.456Z,93895.59
2022-12-09T16:31:24.804Z,93892.13
2022-12-09T16:33:52.977Z,93884.38
2022-12-09T16:36:25.081Z,93903.06
2022-12-09T16:39:43.370Z,93914.53
2022-12-09T16:42:22.582Z,93919.59
2022-12-09T16:44:50.488Z,93917.47
2022-12-09T16:47:24.161Z,93921.22
2022-12-09T16:49:52.024Z,93911.59
2022-12-09T16:52:25.107Z,93913.75
2022-12-09T16:54:55.873Z,93911.06
2022-12-09T16:57:23.638Z,93916.97
2022-12-09T16:59:53.423Z,93930.81
2022-12-09T17:02:31.803Z,93926.28
2022-12-09T17:05:00.520Z,93936.13
2022-12-09T17:07:28.299Z,93941.78
2022-12-09T17:09:56.037Z,93938.81
2022-12-09T17:12:23.787Z,93942.56
2022-12-09T17:14:52.457Z,93944.72
2022-12-09T17:17:20.260Z,93942.88
2022-12-09T17:19:51.842Z,93947.66
2022-12-09T17:22:19.628Z,93952.47
2022-12-09T17:24:50.489Z,93951.41
2022-12-09T17:27:18.227Z,93950.84
2022-12-09T17:29:46.575Z,93952.69
2022-12-09T17:32:16.368Z,93955.63
2022-12-09T17:34:44.135Z,93962.84
2022-12-09T17:37:13.205Z,93959.91
2022-12-09T17:39:41.019Z,93964.97
2022-12-09T17:42:08.836Z,93964.72
2022-12-09T17:44:36.558Z,93971.94
2022-12-09T17:47:04.329Z,93971.94
2022-12-09T17:49:32.075Z,93970.59
2022-12-09T17:51:59.944Z,93972.72
2022-12-09T17:54:29.664Z,93982.31
2022-12-09T17:56:57.372Z,93985.53
2022-12-09T17:59:27.078Z,93979.38
2022-12-09T18:01:54.926Z,93988.22
2022-12-09T18:04:22.739Z,93994.41
2022-12-09T18:06:53.427Z,93994.94
2022-12-09T18:09:22.659Z,94005.88
2022-12-09T18:11:52.494Z,94016.28
2022-12-09T18:14:20.660Z,94005.59
2022-12-09T18:16:49.225Z,94010.16
2022-12-09T18:19:20.221Z,94021.63
2022-12-09T18:21:48.136Z,94025.38
2022-12-09T18:24:15.822Z,94018.72
2022-12-09T18:26:43.647Z,94024.81
2022-12-09T18:29:13.521Z,94020.81
2022-12-09T18:31:42.207Z,94017.84
2022-12-09T18:34:09.947Z,94013.53
2022-12-09T18:36:37.794Z,94010.88
2022-12-09T18:39:08.794Z,94020.78
2022-12-09T18:41:37.099Z,94018.88
2022-12-09T18:44:07.741Z,94017.31
2022-12-09T18:46:38.943Z,94017.56
2022-12-09T18:49:08.539Z,94025.81
2022-12-09T18:51:39.898Z,94033.31
2022-12-09T18:54:09.072Z,94030.91
2022-12-09T18:56:41.285Z,94035.44
2022-12-09T18:59:10.089Z,94033.56
2022-12-09T19:01:41.517Z,94039.72
2022-12-09T19:04:16.174Z,94037.34
2022-12-09T19:06:45.729Z,94028.81
2022-12-09T19:09:16.243Z,94032.06
2022-12-09T19:11:46.029Z,94035.50
2022-12-09T19:14:15.099Z,94023.75
2022-12-09T19:16:45.185Z,94025.84
2022-12-09T19:19:14.824Z,94005.28
2022-12-09T19:21:43.142Z,94009.56
2022-12-09T19:24:14.246Z,94006.88
2022-12-09T19:26:42.970Z,94009.81
2022-12-09T19:29:13.478Z,94013.81
2022-12-09T19:31:44.175Z,94027.47
2022-12-09T19:34:16.279Z,94035.50
2022-12-09T19:36:44.957Z,94045.13
2022-12-09T19:39:14.059Z,94056.06
2022-12-09T19:41:43.108Z,94055.28
2022-12-09T19:44:15.331Z,94058.19
2022-12-09T19:46:43.974Z,94055.00
2022-12-09T19:49:16.080Z,94052.03
2022-12-09T19:51:44.608Z,94054.69
2022-12-09T19:54:15.472Z,94064.31
2022-12-09T19:56:44.387Z,94054.72
2022-12-09T19:59:12.584Z,94059.25
2022-12-09T20:01:43.489Z,94048.28
2022-12-09T20:04:47.008Z,94044.78
2022-12-09T20:07:08.084Z,94042.97
2022-12-09T20:09:37.385Z,94042.69
2022-12-09T20:12:05.773Z,94047.53
2022-12-09T20:14:36.011Z,94049.94
2022-12-09T20:17:03.899Z,94044.81
2022-12-09T20:19:33.228Z,94048.53
2022-12-09T20:22:01.041Z,94044.78
2022-12-09T20:24:30.343Z,94055.97
2022-12-09T20:26:58.098Z,94064.59
2022-12-09T20:29:25.841Z,94079.00
2022-12-09T20:31:55.695Z,94074.47
2022-12-09T20:34:23.585Z,94078.50
2022-12-09T20:36:53.192Z,94069.44
2022-12-09T20:39:22.040Z,94069.94
2022-12-09T20:41:50.474Z,94062.72
2022-12-09T20:44:19.996Z,94069.94
2022-12-09T20:46:49.614Z,94051.25
2022-12-09T20:49:19.756Z,94043.75
2022-12-09T20:51:49.192Z,94043.22
2022-12-09T20:54:18.378Z,94052.84
2022-12-09T20:56:46.125Z,94048.03
2022-12-09T20:59:14.000Z,94052.84
2022-12-09T21:01:47.023Z,94059.25
2022-12-09T21:04:15.424Z,94062.19
2022-12-09T21:06:43.849Z,94065.66
2022-12-09T21:09:14.891Z,94073.66
2022-12-09T21:11:44.318Z,94075.53
2022-12-09T21:14:13.283Z,94092.91
2022-12-09T21:16:43.179Z,94095.88
2022-12-09T21:19:14.209Z,94088.13
2022-12-09T21:21:45.255Z,94088.88
2022-12-09T21:24:13.919Z,94086.75
2022-12-09T21:26:42.454Z,94085.41
2022-12-09T21:29:13.210Z,94076.34
2022-12-09T21:31:42.472Z,94085.16
2022-12-09T21:34:11.785Z,94081.94
2022-12-09T21:36:42.483Z,94080.84
2022-12-09T21:39:13.072Z,94090.19
2022-12-09T21:41:41.569Z,94091.31
2022-12-09T21:44:15.162Z,94094.22
2022-12-09T21:46:43.520Z,94092.66
2022-12-09T21:49:11.920Z,94096.13
2022-12-09T21:51:39.826Z,94108.38
2022-12-09T21:54:07.721Z,94096.59
2022-12-09T21:56:36.930Z,94094.19
2022-12-09T21:59:06.588Z,94097.91
2022-12-09T22:01:37.703Z,94097.16
2022-12-09T22:04:07.120Z,94107.88
2022-12-09T22:06:34.944Z,94096.63
2022-12-09T22:09:03.383Z,94091.31
2022-12-09T22:11:33.297Z,94098.25
2022-12-09T22:14:02.083Z,94091.00
2022-12-09T22:16:32.001Z,94091.25
2022-12-09T22:19:02.189Z,94104.66
2022-12-09T22:21:33.652Z,94102.53
2022-12-09T22:24:04.443Z,94096.63
2022-12-09T22:26:32.543Z,94091.00
2022-12-09T22:29:01.442Z,94092.59
2022-12-09T22:31:31.178Z,94096.06
2022-12-09T22:34:03.034Z,94098.19
2022-12-09T22:36:30.998Z,94086.41
2022-12-09T22:38:58.777Z,94083.75
2022-12-09T22:41:29.733Z,94086.94
2022-12-09T22:43:58.267Z,94082.16
2022-12-09T22:46:28.554Z,94082.16
2022-12-09T22:48:57.504Z,94079.19
2022-12-09T22:51:28.915Z,94080.56
2022-12-09T22:53:57.866Z,94076.53
2022-12-09T22:56:26.578Z,94073.88
2022-12-09T23:03:18.150Z,94071.16
2022-12-09T23:05:46.009Z,94067.13
2022-12-09T23:08:14.367Z,94075.19
2022-12-09T23:10:42.858Z,94076.25
2022-12-09T23:13:11.140Z,94089.31
2022-12-09T23:15:38.879Z,94092.03
2022-12-09T23:18:06.704Z,94092.84
2022-12-09T23:20:35.851Z,94103.50
2022-12-09T23:23:03.560Z,94094.22
2022-12-09T23:25:34.074Z,94112.66
2022-12-09T23:28:01.814Z,94104.34
2022-12-09T23:30:29.472Z,94116.34
2022-12-09T23:32:59.691Z,94110.75
2022-12-09T23:35:27.354Z,94104.88
2022-12-09T23:37:56.379Z,94097.13
2022-12-09T23:40:24.047Z,94095.00
2022-12-09T23:42:53.936Z,94097.97
2022-12-09T23:45:21.804Z,94107.03
2022-12-09T23:47:49.480Z,94099.28
2022-12-09T23:50:17.306Z,94105.72
2022-12-09T23:52:44.983Z,94108.94
2022-12-09T23:55:13.997Z,94100.91
2022-12-09T23:57:41.671Z,94102.78
